Time;durP1;ratioP1;P1;durP2;ratioP2;P2;SDS_P1;SDS_P2;PMS_P1;PMS_P2;Temp;Humidity;BMP_temperature;BMP_pressure;BME280_temperature;BME280_humidity;BME280_pressure;Samples;Min_cycle;Max_cycle;Signal;HPM_P1;HPM_P2
2021/03/21 00:00:59;;;;;;;;;;;;;;;5.57;77.46;102271.06;4751090;30;19926;-67
2021/03/21 00:03:26;;;;;;;;;;;;;;;5.48;78.01;102280.69;4734421;30;20307;-68
2021/03/21 00:06:03;;;;;;;;;;;;;;;5.57;77.39;102282.00;4735385;30;20423;-69
2021/03/21 00:08:32;;;;;;;;;;;;;;;5.71;77.13;102286.09;4732940;30;19926;-68
2021/03/21 00:11:00;;;;;;;;;;;;;;;5.46;77.85;102277.38;4734812;30;19995;-67
2021/03/21 00:13:27;;;;;;;;;;;;;;;5.39;78.21;102276.69;4749979;30;19933;-68
2021/03/21 00:15:55;;;;;;;;;;;;;;;5.63;77.99;102281.84;4749908;30;19926;-69
2021/03/21 00:18:25;;;;;;;;;;;;;;;5.35;78.22;102283.72;4748370;30;20389;-68
2021/03/21 00:20:51;;;;;;;;;;;;;;;5.39;78.27;102274.78;4734299;30;19933;-67
2021/03/21 00:23:18;;;;;;;;;;;;;;;5.68;77.28;102281.13;4735627;30;19933;-66
2021/03/21 00:25:45;;;;;;;;;;;;;;;5.78;76.60;102272.28;4751336;30;19930;-68
2021/03/21 00:28:14;;;;;;;;;;;;;;;5.69;76.55;102277.31;4749965;30;20363;-67
2021/03/21 00:30:42;;;;;;;;;;;;;;;5.42;77.44;102271.56;4751720;30;19926;-67
2021/03/21 00:33:09;;;;;;;;;;;;;;;5.48;77.90;102269.78;4751800;30;19926;-67
2021/03/21 00:35:40;;;;;;;;;;;;;;;5.44;78.26;102261.22;4751804;30;19956;-68
2021/03/21 00:38:08;;;;;;;;;;;;;;;5.54;77.81;102266.09;4736798;30;19926;-70
2021/03/21 00:40:35;;;;;;;;;;;;;;;5.44;77.92;102268.63;4732666;30;19937;-68
2021/03/21 00:43:02;;;;;;;;;;;;;;;5.41;78.15;102261.72;4761339;30;19925;-67
2021/03/21 00:45:29;;;;;;;;;;;;;;;5.47;77.74;102265.38;4769388;30;20271;-67
2021/03/21 00:47:56;;;;;;;;;;;;;;;5.19;79.10;102270.78;4769291;30;20367;-66
2021/03/21 00:50:23;;;;;;;;;;;;;;;5.22;79.46;102264.84;4768519;30;19926;-66
2021/03/21 00:52:50;;;;;;;;;;;;;;;5.39;78.73;102266.59;4752705;30;19926;-68
2021/03/21 00:55:17;;;;;;;;;;;;;;;5.51;77.98;102258.34;4768547;30;19926;-68
2021/03/21 00:57:43;;;;;;;;;;;;;;;5.58;77.99;102264.50;4746826;30;19926;-67
2021/03/21 01:00:12;;;;;;;;;;;;;;;5.72;77.05;102263.16;4750744;30;19926;-69
2021/03/21 01:02:38;;;;;;;;;;;;;;;5.32;78.05;102268.63;4735688;30;20295;-68
2021/03/21 01:05:09;;;;;;;;;;;;;;;5.26;78.86;102274.22;4749017;30;19930;-67
2021/03/21 01:07:35;;;;;;;;;;;;;;;5.33;78.77;102264.00;4725472;30;19931;-68
2021/03/21 01:10:03;;;;;;;;;;;;;;;5.27;78.85;102259.47;4719598;30;19930;-66
2021/03/21 01:12:30;;;;;;;;;;;;;;;5.53;78.05;102256.22;4748897;30;19926;-68
2021/03/21 01:14:56;;;;;;;;;;;;;;;5.12;79.27;102254.53;4750790;30;19930;-67
2021/03/21 01:17:23;;;;;;;;;;;;;;;4.97;80.26;102256.91;4750463;30;19926;-68
2021/03/21 01:19:50;;;;;;;;;;;;;;;4.83;81.01;102252.78;4735562;30;20291;-69
2021/03/21 01:22:16;;;;;;;;;;;;;;;4.70;81.76;102258.47;4735388;30;20328;-67
2021/03/21 01:24:44;;;;;;;;;;;;;;;4.83;81.52;102251.97;4735646;30;20379;-69
2021/03/21 01:27:11;;;;;;;;;;;;;;;4.77;81.71;102247.44;4750481;30;19926;-69
2021/03/21 01:29:38;;;;;;;;;;;;;;;4.69;81.88;102239.63;4734938;30;19926;-67
2021/03/21 01:32:08;;;;;;;;;;;;;;;4.77;81.62;102241.97;4750173;30;20414;-68
2021/03/21 01:34:35;;;;;;;;;;;;;;;4.71;81.89;102241.03;4733632;30;19934;-69
2021/03/21 01:37:02;;;;;;;;;;;;;;;4.70;82.05;102241.28;4727547;30;19926;-68
2021/03/21 01:39:28;;;;;;;;;;;;;;;4.68;81.91;102240.66;4731870;30;19926;-67
2021/03/21 01:41:57;;;;;;;;;;;;;;;4.85;81.55;102231.53;4735664;30;20260;-69
2021/03/21 01:44:24;;;;;;;;;;;;;;;4.83;81.23;102228.19;4736332;30;19926;-68
2021/03/21 01:46:53;;;;;;;;;;;;;;;4.63;81.94;102233.22;4715791;30;19926;-68
2021/03/21 01:49:21;;;;;;;;;;;;;;;4.63;82.77;102211.38;4735939;30;19927;-67
2021/03/21 01:51:48;;;;;;;;;;;;;;;4.54;82.99;102213.63;4734818;30;19931;-68
2021/03/21 01:54:17;;;;;;;;;;;;;;;4.69;82.68;102212.34;4706021;30;19934;-68
2021/03/21 01:56:43;;;;;;;;;;;;;;;4.90;81.77;102206.25;4735350;30;19933;-69
2021/03/21 01:59:10;;;;;;;;;;;;;;;4.96;81.09;102199.81;4769262;30;19933;-69
2021/03/21 02:01:37;;;;;;;;;;;;;;;5.04;80.71;102200.28;4771523;30;19933;-68
2021/03/21 02:04:05;;;;;;;;;;;;;;;5.13;80.30;102192.53;4755258;30;20303;-68
2021/03/21 02:06:35;;;;;;;;;;;;;;;5.34;79.00;102192.72;4747757;30;19950;-68
2021/03/21 02:09:01;;;;;;;;;;;;;;;5.27;79.53;102186.56;4736589;30;19926;-68
2021/03/21 02:11:36;;;;;;;;;;;;;;;5.31;79.54;102176.81;4752687;30;20307;-68
2021/03/21 02:14:21;;;;;;;;;;;;;;;5.51;78.89;102177.19;4752948;30;19926;-68
2021/03/21 02:16:50;;;;;;;;;;;;;;;5.77;77.71;102183.16;4737765;30;19926;-69
2021/03/21 02:19:36;;;;;;;;;;;;;;;5.52;77.93;102181.59;4737114;30;19930;-67
2021/03/21 02:22:04;;;;;;;;;;;;;;;5.40;78.80;102183.56;4752735;30;20265;-68
2021/03/21 02:24:31;;;;;;;;;;;;;;;5.91;77.35;102174.41;4736907;30;19933;-66
2021/03/21 02:27:03;;;;;;;;;;;;;;;6.24;76.13;102171.69;4753502;30;19933;-69
2021/03/21 02:29:30;;;;;;;;;;;;;;;5.83;76.08;102179.44;4723348;30;19926;-66
2021/03/21 02:31:58;;;;;;;;;;;;;;;5.84;76.90;102178.38;4753195;30;19926;-66
2021/03/21 02:34:41;;;;;;;;;;;;;;;5.48;77.54;102183.16;4737511;30;20403;-67
2021/03/21 02:37:28;;;;;;;;;;;;;;;5.51;78.21;102174.47;4745712;30;19933;-67
2021/03/21 02:39:57;;;;;;;;;;;;;;;5.51;78.31;102165.44;4735650;30;19926;-69
2021/03/21 02:42:34;;;;;;;;;;;;;;;5.69;78.07;102163.34;4735472;30;19927;-70
2021/03/21 02:45:06;;;;;;;;;;;;;;;5.60;77.91;102159.34;4719299;30;20279;-69
2021/03/21 02:47:32;;;;;;;;;;;;;;;5.63;77.20;102158.03;4734369;30;19933;-66
2021/03/21 02:50:01;;;;;;;;;;;;;;;5.47;78.36;102161.56;4735509;30;19927;-66
2021/03/21 02:52:31;;;;;;;;;;;;;;;5.64;77.84;102162.41;4732389;30;20371;-70
2021/03/21 02:54:58;;;;;;;;;;;;;;;5.54;78.10;102167.69;4735020;30;20392;-67
2021/03/21 02:57:26;;;;;;;;;;;;;;;5.11;79.62;102164.66;4741890;30;19926;-68
2021/03/21 02:59:54;;;;;;;;;;;;;;;5.15;80.45;102155.72;4755233;30;19926;-67
2021/03/21 03:02:22;;;;;;;;;;;;;;;5.54;79.31;102164.97;4770210;30;19926;-68
2021/03/21 03:04:53;;;;;;;;;;;;;;;5.44;78.59;102159.31;4739693;30;19926;-67
2021/03/21 03:07:20;;;;;;;;;;;;;;;5.26;79.29;102164.97;4733632;30;19933;-67
2021/03/21 03:09:49;;;;;;;;;;;;;;;5.25;79.97;102158.66;4748274;30;19931;-68
2021/03/21 03:12:16;;;;;;;;;;;;;;;5.61;79.14;102169.19;4748423;30;19933;-66
2021/03/21 03:14:43;;;;;;;;;;;;;;;5.53;79.08;102157.81;4747381;30;19934;-68
2021/03/21 03:17:10;;;;;;;;;;;;;;;5.74;78.12;102155.22;4747824;30;19926;-69
2021/03/21 03:19:49;;;;;;;;;;;;;;;5.88;76.95;102157.66;4747814;30;20368;-67
2021/03/21 03:22:21;;;;;;;;;;;;;;;5.84;77.15;102151.03;4748088;30;19938;-67
2021/03/21 03:25:07;;;;;;;;;;;;;;;5.60;78.02;102148.41;4748296;30;19930;-68
2021/03/21 03:27:33;;;;;;;;;;;;;;;5.59;78.44;102126.78;4735522;30;19926;-68
2021/03/21 03:30:07;;;;;;;;;;;;;;;5.68;78.25;102122.59;4734529;30;19949;-69
2021/03/21 03:32:33;;;;;;;;;;;;;;;5.84;77.47;102129.97;4733954;30;19934;-67
2021/03/21 03:35:00;;;;;;;;;;;;;;;5.73;77.24;102126.25;4734049;30;19933;-69
2021/03/21 03:37:27;;;;;;;;;;;;;;;5.66;78.16;102127.47;4734636;30;20292;-67
2021/03/21 03:39:54;;;;;;;;;;;;;;;6.00;77.15;102128.34;4718899;30;20295;-69
2021/03/21 03:42:39;;;;;;;;;;;;;;;5.99;77.07;102124.78;4733232;30;20411;-68
2021/03/21 03:45:16;;;;;;;;;;;;;;;6.13;76.65;102123.38;4718701;30;20314;-68
2021/03/21 03:47:49;;;;;;;;;;;;;;;6.34;75.70;102122.59;4734109;30;20299;-66
2021/03/21 03:50:21;;;;;;;;;;;;;;;6.61;74.37;102133.66;4718911;30;19930;-67
2021/03/21 03:53:03;;;;;;;;;;;;;;;6.52;74.61;102141.47;4718429;30;19926;-67
2021/03/21 03:55:36;;;;;;;;;;;;;;;6.66;73.57;102125.50;4719186;30;20288;-68
2021/03/21 03:58:04;;;;;;;;;;;;;;;5.92;76.31;102126.84;4751378;30;19925;-69
2021/03/21 04:00:35;;;;;;;;;;;;;;;5.91;76.62;102124.38;4753514;30;19926;-68
2021/03/21 04:03:19;;;;;;;;;;;;;;;6.00;76.99;102117.41;4767932;30;20332;-67
2021/03/21 04:06:02;;;;;;;;;;;;;;;6.19;76.06;102124.28;4755948;30;20092;-68
2021/03/21 04:09:04;;;;;;;;;;;;;;;5.62;78.08;102137.22;4732504;30;19927;-69
2021/03/21 04:11:32;;;;;;;;;;;;;;;5.57;78.45;102131.66;4716660;30;19926;-69
2021/03/21 04:14:13;;;;;;;;;;;;;;;5.50;79.07;102131.00;4730628;30;19941;-67
2021/03/21 04:16:45;;;;;;;;;;;;;;;5.40;79.39;102128.09;4717729;30;19926;-68
2021/03/21 04:19:13;;;;;;;;;;;;;;;5.61;79.35;102128.19;4718087;30;19926;-68
2021/03/21 04:22:03;;;;;;;;;;;;;;;5.49;79.77;102129.34;4717681;30;19926;-69
2021/03/21 04:25:02;;;;;;;;;;;;;;;5.88;78.86;102141.25;4727538;30;19926;-68
2021/03/21 04:27:34;;;;;;;;;;;;;;;6.24;76.17;102157.19;4696893;30;19927;-67
2021/03/21 04:30:11;;;;;;;;;;;;;;;5.85;78.32;102144.50;4695016;30;19927;-70
2021/03/21 04:32:41;;;;;;;;;;;;;;;5.47;79.40;102137.75;4697071;30;20304;-69
2021/03/21 04:35:15;;;;;;;;;;;;;;;5.71;79.37;102139.31;4697091;30;19927;-70
2021/03/21 04:37:42;;;;;;;;;;;;;;;5.58;80.10;102125.13;4681752;30;19954;-69
2021/03/21 04:40:12;;;;;;;;;;;;;;;5.87;79.58;102113.09;4678529;30;20300;-69
2021/03/21 04:42:52;;;;;;;;;;;;;;;6.16;78.15;102111.09;4665619;30;20034;-68
2021/03/21 04:45:23;;;;;;;;;;;;;;;6.17;77.38;102115.50;4665174;30;19928;-65
2021/03/21 04:47:58;;;;;;;;;;;;;;;6.07;78.22;102118.88;4662781;30;19932;-67
2021/03/21 04:50:25;;;;;;;;;;;;;;;5.77;79.21;102112.88;4662809;30;19928;-67
2021/03/21 04:52:52;;;;;;;;;;;;;;;6.06;78.82;102103.56;4661896;30;20487;-68
2021/03/21 04:55:41;;;;;;;;;;;;;;;6.26;77.59;102105.78;4661061;30;20329;-69
2021/03/21 04:58:26;;;;;;;;;;;;;;;6.53;76.07;102109.47;4688406;30;19972;-68
2021/03/21 05:00:53;;;;;;;;;;;;;;;6.42;77.18;102102.16;4696067;30;19934;-67
2021/03/21 05:03:21;;;;;;;;;;;;;;;6.52;76.85;102099.59;4736658;30;19926;-67
2021/03/21 05:05:55;;;;;;;;;;;;;;;6.49;76.40;102097.34;4750191;30;19925;-68
2021/03/21 05:08:27;;;;;;;;;;;;;;;6.36;76.60;102087.59;4717489;30;19934;-67
2021/03/21 05:10:58;;;;;;;;;;;;;;;6.25;77.60;102085.81;4732882;30;19930;-68
2021/03/21 05:13:33;;;;;;;;;;;;;;;6.19;77.56;102083.25;4733343;30;20172;-67
2021/03/21 05:16:01;;;;;;;;;;;;;;;6.44;77.69;102076.22;4719582;30;19926;-67
2021/03/21 05:18:34;;;;;;;;;;;;;;;6.42;76.92;102097.53;4735783;30;19934;-67
2021/03/21 05:21:03;;;;;;;;;;;;;;;6.21;77.68;102083.81;4720915;30;20253;-68
2021/03/21 05:23:38;;;;;;;;;;;;;;;5.96;79.70;102091.63;4735266;30;19937;-66
2021/03/21 05:26:14;;;;;;;;;;;;;;;5.82;80.93;102087.53;4735795;30;19930;-66
2021/03/21 05:28:47;;;;;;;;;;;;;;;5.77;81.11;102092.94;4736791;30;19926;-67
2021/03/21 05:31:14;;;;;;;;;;;;;;;5.80;81.21;102092.44;4736675;30;20351;-67
2021/03/21 05:33:44;;;;;;;;;;;;;;;6.20;80.42;102091.19;4736332;30;20312;-66
2021/03/21 05:36:24;;;;;;;;;;;;;;;6.33;78.86;102087.28;4739709;30;19926;-67
2021/03/21 05:38:57;;;;;;;;;;;;;;;6.46;78.35;102087.75;4738448;30;19933;-66
2021/03/21 05:41:42;;;;;;;;;;;;;;;6.46;77.79;102087.75;4738370;30;19930;-66
2021/03/21 05:44:29;;;;;;;;;;;;;;;6.54;77.03;102095.50;4753219;30;19949;-67
2021/03/21 05:47:08;;;;;;;;;;;;;;;6.41;77.60;102090.41;4724202;30;19926;-67
2021/03/21 05:49:37;;;;;;;;;;;;;;;6.55;76.95;102093.63;4753926;30;19930;-68
2021/03/21 05:52:23;;;;;;;;;;;;;;;6.76;76.13;102081.84;4753367;30;20410;-69
2021/03/21 05:54:56;;;;;;;;;;;;;;;6.68;76.27;102085.84;4753680;30;19933;-69
2021/03/21 05:57:41;;;;;;;;;;;;;;;6.77;75.85;102089.78;4757603;30;19925;-69
2021/03/21 06:00:11;;;;;;;;;;;;;;;6.77;75.79;102099.91;4769009;30;19929;-69
2021/03/21 06:02:48;;;;;;;;;;;;;;;6.88;75.76;102092.66;4755112;30;20379;-67
2021/03/21 06:05:34;;;;;;;;;;;;;;;7.15;75.17;102094.34;4743927;30;19926;-68
2021/03/21 06:08:05;;;;;;;;;;;;;;;7.15;74.09;102101.75;4735952;30;19933;-69
2021/03/21 06:10:58;;;;;;;;;;;;;;;6.84;74.80;102111.50;4742646;30;19943;-68
2021/03/21 06:13:37;;;;;;;;;;;;;;;6.77;75.61;102119.09;4739523;30;19926;-68
2021/03/21 06:16:07;;;;;;;;;;;;;;;6.82;75.70;102110.94;4751759;30;19926;-69
2021/03/21 06:18:36;;;;;;;;;;;;;;;6.96;75.32;102108.66;4751777;30;19937;-68
2021/03/21 06:21:22;;;;;;;;;;;;;;;7.01;74.59;102115.00;4753174;30;19926;-68
2021/03/21 06:24:09;;;;;;;;;;;;;;;6.54;76.59;102119.31;4751516;30;19926;-66
2021/03/21 06:26:41;;;;;;;;;;;;;;;6.56;77.09;102117.16;4751878;30;19938;-70
2021/03/21 06:29:18;;;;;;;;;;;;;;;6.50;77.76;102116.25;4722923;30;20349;-67
2021/03/21 06:31:52;;;;;;;;;;;;;;;6.60;77.98;102121.06;4737726;30;20410;-68
2021/03/21 06:34:40;;;;;;;;;;;;;;;6.54;79.13;102119.31;4752826;30;19981;-66
2021/03/21 06:37:23;;;;;;;;;;;;;;;6.63;78.15;102123.28;4707094;30;19927;-67
2021/03/21 06:39:50;;;;;;;;;;;;;;;6.62;78.60;102127.94;4734451;30;19927;-69
2021/03/21 06:42:35;;;;;;;;;;;;;;;6.50;79.46;102120.91;4735379;30;19926;-66
2021/03/21 06:45:20;;;;;;;;;;;;;;;6.45;80.35;102118.91;4718816;30;20280;-67
2021/03/21 06:47:53;;;;;;;;;;;;;;;6.66;79.14;102117.28;4734509;30;20008;-67
2021/03/21 06:50:30;;;;;;;;;;;;;;;6.81;78.20;102104.66;4734924;30;19949;-66
2021/03/21 06:53:00;;;;;;;;;;;;;;;6.95;77.13;102102.34;4734859;30;19926;-67
2021/03/21 06:55:42;;;;;;;;;;;;;;;7.19;76.19;102106.47;4734914;30;19927;-66
2021/03/21 06:58:11;;;;;;;;;;;;;;;7.18;75.72;102107.56;4752439;30;19937;-67
2021/03/21 07:00:58;;;;;;;;;;;;;;;7.12;75.86;102110.47;4753995;30;20306;-66
2021/03/21 07:03:31;;;;;;;;;;;;;;;7.16;76.25;102101.50;4750032;30;19933;-67
2021/03/21 07:06:10;;;;;;;;;;;;;;;7.16;75.80;102090.53;4740779;30;20307;-67
2021/03/21 07:08:43;;;;;;;;;;;;;;;7.40;75.17;102085.56;4734623;30;19933;-67
2021/03/21 07:11:21;;;;;;;;;;;;;;;7.39;74.85;102090.22;4734577;30;20387;-66
2021/03/21 07:14:07;;;;;;;;;;;;;;;7.50;74.58;102089.22;4733421;30;20395;-66
2021/03/21 07:16:37;;;;;;;;;;;;;;;7.29;75.44;102097.50;4734319;30;20382;-68
2021/03/21 07:19:23;;;;;;;;;;;;;;;7.44;75.34;102097.69;4734433;30;20410;-66
2021/03/21 07:22:01;;;;;;;;;;;;;;;7.37;75.60;102100.63;4734805;30;19933;-69
2021/03/21 07:24:33;;;;;;;;;;;;;;;7.33;75.58;102095.91;4733038;30;19930;-68
2021/03/21 07:27:07;;;;;;;;;;;;;;;7.46;75.49;102109.22;4733611;30;20432;-69
2021/03/21 07:29:41;;;;;;;;;;;;;;;7.48;75.00;102110.59;4714439;30;19934;-69
2021/03/21 07:32:45;;;;;;;;;;;;;;;7.21;76.53;102106.19;4733633;30;19926;-67
2021/03/21 07:35:15;;;;;;;;;;;;;;;7.21;77.37;102104.28;4738465;30;19926;-71
2021/03/21 07:37:48;;;;;;;;;;;;;;;6.99;78.80;102106.22;4752244;30;19926;-70
2021/03/21 07:40:23;;;;;;;;;;;;;;;7.10;79.23;102112.63;4752369;30;19926;-70
2021/03/21 07:42:50;;;;;;;;;;;;;;;7.19;78.47;102102.88;4746735;30;19927;-68
2021/03/21 07:45:19;;;;;;;;;;;;;;;7.03;79.36;102101.03;4746364;30;19928;-70
2021/03/21 07:48:18;;;;;;;;;;;;;;;7.15;79.07;102099.81;4750458;30;20438;-69
2021/03/21 07:50:55;;;;;;;;;;;;;;;7.10;79.46;102098.94;4732885;30;19930;-65
2021/03/21 07:53:36;;;;;;;;;;;;;;;7.01;79.95;102103.25;4703354;30;19927;-68
2021/03/21 07:56:14;;;;;;;;;;;;;;;6.79;80.55;102100.50;4731151;30;19934;-66
2021/03/21 07:58:45;;;;;;;;;;;;;;;6.65;82.55;102097.31;4732557;30;19955;-68
2021/03/21 08:01:12;;;;;;;;;;;;;;;6.83;81.67;102088.75;4717235;30;20389;-68
2021/03/21 08:03:44;;;;;;;;;;;;;;;7.23;80.31;102084.84;4726877;30;19944;-66
2021/03/21 08:06:12;;;;;;;;;;;;;;;7.08;80.13;102079.22;4728653;30;19931;-68
2021/03/21 08:08:40;;;;;;;;;;;;;;;7.07;80.41;102086.59;4720801;30;19937;-66
2021/03/21 08:11:07;;;;;;;;;;;;;;;7.21;80.60;102084.28;4717334;30;19937;-67
2021/03/21 08:13:44;;;;;;;;;;;;;;;7.67;78.24;102078.16;4729797;30;20299;-67
2021/03/21 08:16:15;;;;;;;;;;;;;;;7.74;78.07;102092.50;4731664;30;20055;-66
2021/03/21 08:18:43;;;;;;;;;;;;;;;7.68;78.27;102088.88;4728809;30;19940;-68
2021/03/21 08:21:17;;;;;;;;;;;;;;;7.68;77.94;102091.59;4728407;30;19937;-69
2021/03/21 08:23:48;;;;;;;;;;;;;;;7.35;79.40;102086.34;4714883;30;19926;-69
2021/03/21 08:26:23;;;;;;;;;;;;;;;7.33;79.83;102088.53;4734582;30;19949;-70
2021/03/21 08:29:08;;;;;;;;;;;;;;;;;;;;;
2021/03/21 08:31:36;;;;;;;;;;;;;;;7.05;81.18;102091.50;4755622;30;20367;-70
2021/03/21 08:34:22;;;;;;;;;;;;;;;6.76;83.39;102082.66;4745704;30;19937;-68
2021/03/21 08:36:49;;;;;;;;;;;;;;;6.72;83.78;102083.44;4748790;30;19930;-69
2021/03/21 08:39:37;;;;;;;;;;;;;;;6.76;84.31;102082.66;4734352;30;19933;-68
2021/03/21 08:42:39;;;;;;;;;;;;;;;7.05;83.23;102083.28;4768214;30;19926;-70
2021/03/21 08:45:07;;;;;;;;;;;;;;;6.65;84.56;102091.84;4686983;30;19928;-67
2021/03/21 08:47:34;;;;;;;;;;;;;;;6.76;84.67;102090.06;4680489;30;19928;-68
2021/03/21 08:50:01;;;;;;;;;;;;;;;6.79;84.98;102087.63;4677102;30;19934;-68
2021/03/21 08:52:28;;;;;;;;;;;;;;;7.01;83.77;102084.88;4684461;30;19927;-67
2021/03/21 08:54:54;;;;;;;;;;;;;;;6.81;84.51;102085.47;4683562;30;19935;-68
2021/03/21 08:57:29;;;;;;;;;;;;;;;7.05;84.32;102076.97;4676320;30;20389;-65
2021/03/21 09:00:14;;;;;;;;;;;;;;;7.19;83.17;102078.22;4686506;30;19927;-70
2021/03/21 09:02:41;;;;;;;;;;;;;;;7.13;83.46;102076.53;4685023;30;19934;-70
2021/03/21 09:05:09;;;;;;;;;;;;;;;6.84;85.65;102078.66;4684076;30;20658;-68
2021/03/21 09:07:36;;;;;;;;;;;;;;;7.00;85.33;102076.91;4671052;30;19927;-69
2021/03/21 09:10:09;;;;;;;;;;;;;;;6.82;86.37;102072.59;4695757;30;19927;-67
2021/03/21 09:12:37;;;;;;;;;;;;;;;7.23;85.23;102065.66;4689449;30;20419;-67
2021/03/21 09:15:30;;;;;;;;;;;;;;;7.41;84.27;102059.81;4660656;30;19927;-66
2021/03/21 09:18:03;;;;;;;;;;;;;;;7.18;84.74;102069.19;4672111;30;19927;-69
2021/03/21 09:20:30;;;;;;;;;;;;;;;7.07;85.85;102066.59;4685916;30;19954;-67
2021/03/21 09:22:57;;;;;;;;;;;;;;;7.25;85.52;102056.13;4757610;30;19974;-67
2021/03/21 09:25:31;;;;;;;;;;;;;;;7.34;85.16;102065.50;4757319;30;19933;-68
2021/03/21 09:27:58;;;;;;;;;;;;;;;7.40;85.08;102060.91;4741642;30;20291;-69
2021/03/21 09:30:39;;;;;;;;;;;;;;;7.23;85.90;102077.47;4761997;30;19934;-70
2021/03/21 09:33:08;;;;;;;;;;;;;;;7.05;87.52;102072.31;4740873;30;20368;-69
2021/03/21 09:35:45;;;;;;;;;;;;;;;7.04;88.16;102121.91;4741037;30;20040;-69
2021/03/21 09:38:14;;;;;;;;;;;;;;;6.99;87.96;102124.56;4757239;30;19953;-65
2021/03/21 09:40:41;;;;;;;;;;;;;;;7.23;87.58;102118.56;4771226;30;19937;-67
2021/03/21 09:43:13;;;;;;;;;;;;;;;7.29;86.84;102113.94;4760910;30;19933;-69
2021/03/21 09:45:44;;;;;;;;;;;;;;;7.35;86.82;102110.19;4755855;30;19926;-68
2021/03/21 09:48:24;;;;;;;;;;;;;;;7.30;87.68;102108.22;4767890;30;19930;-68
2021/03/21 09:50:51;;;;;;;;;;;;;;;7.32;87.66;102108.78;4739713;30;19933;-69
2021/03/21 09:53:21;;;;;;;;;;;;;;;7.62;86.73;102097.28;4753191;30;20303;-67
2021/03/21 09:55:49;;;;;;;;;;;;;;;7.95;84.42;102095.13;4763355;30;19926;-69
2021/03/21 09:58:20;;;;;;;;;;;;;;;7.70;85.02;102094.09;4771201;30;20329;-69
2021/03/21 10:01:09;;;;;;;;;;;;;;;7.82;85.07;102098.31;4756951;30;19933;-71
2021/03/21 10:04:04;;;;;;;;;;;;;;;7.96;85.47;102085.81;4758099;30;19942;-72
2021/03/21 10:06:38;;;;;;;;;;;;;;;8.22;83.42;102088.72;4728693;30;19931;-69
2021/03/21 10:09:13;;;;;;;;;;;;;;;8.32;83.67;102092.38;4744700;30;19926;-70
2021/03/21 10:11:42;;;;;;;;;;;;;;;8.40;82.25;102088.34;4735466;30;19945;-69
2021/03/21 10:14:27;;;;;;;;;;;;;;;8.78;80.25;102099.81;4766037;30;19925;-71
2021/03/21 10:17:12;;;;;;;;;;;;;;;8.61;80.64;102104.63;4746644;30;20429;-69
2021/03/21 10:19:45;;;;;;;;;;;;;;;8.34;81.89;102092.97;4763887;30;19933;-69
2021/03/21 10:22:18;;;;;;;;;;;;;;;8.34;82.17;102083.88;4757593;30;20387;-68
2021/03/21 10:24:49;;;;;;;;;;;;;;;8.26;82.36;102085.22;4764804;30;19926;-70
2021/03/21 10:27:23;;;;;;;;;;;;;;;8.17;82.55;102075.81;4734912;30;19926;-68
2021/03/21 10:30:02;;;;;;;;;;;;;;;8.14;83.14;102078.25;4752255;30;19930;-67
2021/03/21 10:32:35;;;;;;;;;;;;;;;8.16;82.80;102079.63;4759852;30;19925;-67
2021/03/21 10:35:02;;;;;;;;;;;;;;;8.31;82.41;102078.94;4743633;30;19929;-67
2021/03/21 10:37:41;;;;;;;;;;;;;;;8.49;82.01;102073.81;4763292;30;20310;-70
2021/03/21 10:40:11;;;;;;;;;;;;;;;8.60;81.27;102077.44;4753046;30;19926;-67
2021/03/21 10:42:46;;;;;;;;;;;;;;;8.60;80.83;102089.25;4755644;30;19926;-68
2021/03/21 10:45:17;;;;;;;;;;;;;;;8.38;82.14;102088.59;4744736;30;19926;-68
2021/03/21 10:47:53;;;;;;;;;;;;;;;8.53;81.96;102079.59;4751642;30;19926;-67
2021/03/21 10:50:42;;;;;;;;;;;;;;;8.89;80.59;102073.19;4728051;30;19926;-71
2021/03/21 10:53:20;;;;;;;;;;;;;;;8.83;80.94;102072.34;4753361;30;19926;-71
2021/03/21 10:56:05;;;;;;;;;;;;;;;8.91;80.44;102074.56;4736184;30;20332;-72
2021/03/21 10:58:46;;;;;;;;;;;;;;;9.18;79.61;102071.63;4748661;30;19933;-76
2021/03/21 11:01:21;;;;;;;;;;;;;;;9.07;79.49;102069.94;4746717;30;19937;-71
2021/03/21 11:03:50;;;;;;;;;;;;;;;9.01;79.67;102071.84;4745953;30;19926;-70
2021/03/21 11:06:17;;;;;;;;;;;;;;;9.16;79.35;102076.56;4745739;30;19928;-72
2021/03/21 11:08:44;;;;;;;;;;;;;;;9.32;78.63;102070.00;4755126;30;19929;-73
2021/03/21 11:11:22;;;;;;;;;;;;;;;9.50;77.68;102069.47;4765644;30;19943;-77
2021/03/21 11:13:49;;;;;;;;;;;;;;;9.34;78.77;102075.22;4722984;30;20307;-71
2021/03/21 11:16:17;;;;;;;;;;;;;;;9.57;76.92;102074.72;4759463;30;19933;-71
2021/03/21 11:18:47;;;;;;;;;;;;;;;9.18;78.00;102076.28;4740980;30;19930;-77
2021/03/21 11:21:15;;;;;;;;;;;;;;;9.47;77.31;102074.69;4741651;30;19926;-72
2021/03/21 11:23:44;;;;;;;;;;;;;;;9.48;76.54;102074.44;4753069;30;19929;-73
2021/03/21 11:26:32;;;;;;;;;;;;;;;9.57;76.36;102075.53;4747233;30;19934;-74
2021/03/21 11:29:01;;;;;;;;;;;;;;;9.50;76.58;102066.72;4742699;30;20311;-72
2021/03/21 11:31:33;;;;;;;;;;;;;;;9.64;75.50;102075.28;4746290;30;19984;-74
2021/03/21 11:34:20;;;;;;;;;;;;;;;9.73;75.30;102074.44;4738765;30;19926;-74
2021/03/21 11:36:58;;;;;;;;;;;;;;;9.68;74.98;102071.69;4751162;30;20131;-73
2021/03/21 11:39:28;;;;;;;;;;;;;;;9.57;75.70;102069.22;4749769;30;19946;-74
2021/03/21 11:41:54;;;;;;;;;;;;;;;9.67;75.56;102092.06;4723569;30;19926;-76
2021/03/21 11:44:23;;;;;;;;;;;;;;;9.39;76.00;102076.06;4756252;30;19929;-73
2021/03/21 11:46:54;;;;;;;;;;;;;;;9.59;76.03;102078.84;4753709;30;19934;-77
2021/03/21 11:49:25;;;;;;;;;;;;;;;9.64;75.58;102080.78;4736799;30;19926;-74
2021/03/21 11:51:56;;;;;;;;;;;;;;;9.66;75.18;102079.41;4734564;30;19930;-70
2021/03/21 11:54:23;;;;;;;;;;;;;;;9.72;74.79;102096.72;4736972;30;19933;-72
2021/03/21 11:56:56;;;;;;;;;;;;;;;9.67;74.54;102074.72;4735325;30;19929;-67
2021/03/21 11:59:25;;;;;;;;;;;;;;;9.67;74.62;102078.31;4746794;30;19933;-67
2021/03/21 12:01:53;;;;;;;;;;;;;;;9.66;73.65;102065.63;4730896;30;19934;-66
2021/03/21 12:04:31;;;;;;;;;;;;;;;9.45;73.97;102066.72;4733909;30;19933;-67
2021/03/21 12:06:59;;;;;;;;;;;;;;;9.68;73.45;102076.34;4716066;30;20042;-65
2021/03/21 12:09:26;;;;;;;;;;;;;;;9.74;73.40;102072.53;4750441;30;19929;-66
2021/03/21 12:11:53;;;;;;;;;;;;;;;9.74;72.97;102062.34;4760991;30;19934;-66
2021/03/21 12:14:31;;;;;;;;;;;;;;;9.90;72.59;102054.91;4748826;30;20008;-70
2021/03/21 12:16:59;;;;;;;;;;;;;;;9.97;71.47;102052.72;4732684;30;19930;-68
2021/03/21 12:19:26;;;;;;;;;;;;;;;10.19;70.54;102045.00;4750825;30;20276;-68
2021/03/21 12:22:02;;;;;;;;;;;;;;;10.31;69.70;102044.69;4746799;30;20303;-69
2021/03/21 12:24:30;;;;;;;;;;;;;;;10.47;69.48;102049.03;4736034;30;19929;-68
2021/03/21 12:27:03;;;;;;;;;;;;;;;10.13;68.28;102030.41;4760172;30;20340;-70
2021/03/21 12:29:38;;;;;;;;;;;;;;;10.16;67.12;102042.81;4732079;30;19988;-67
2021/03/21 12:32:24;;;;;;;;;;;;;;;10.20;66.53;102041.13;4721595;30;20446;-67
2021/03/21 12:34:51;;;;;;;;;;;;;;;10.27;66.64;102041.66;4750931;30;19933;-65
2021/03/21 12:37:20;;;;;;;;;;;;;;;10.23;66.91;102037.00;4768145;30;19998;-63
2021/03/21 12:39:49;;;;;;;;;;;;;;;10.52;66.18;102029.75;4742279;30;19926;-64
2021/03/21 12:42:25;;;;;;;;;;;;;;;10.65;65.61;102024.44;4734833;30;20299;-67
2021/03/21 12:45:07;;;;;;;;;;;;;;;10.23;66.93;102022.13;4751945;30;19930;-66
2021/03/21 12:47:36;;;;;;;;;;;;;;;10.52;66.35;102021.47;4763992;30;19944;-65
2021/03/21 12:50:18;;;;;;;;;;;;;;;10.52;66.35;102013.22;4738132;30;19932;-67
2021/03/21 12:52:46;;;;;;;;;;;;;;;10.60;66.55;102010.69;4767194;30;19929;-63
2021/03/21 12:55:14;;;;;;;;;;;;;;;10.78;65.02;101999.03;4737846;30;19960;-65
2021/03/21 12:57:40;;;;;;;;;;;;;;;11.05;64.38;102002.19;4748883;30;19926;-69
2021/03/21 13:00:09;;;;;;;;;;;;;;;11.14;63.55;101997.72;4758178;30;19927;-69
2021/03/21 13:02:36;;;;;;;;;;;;;;;10.75;62.81;101999.63;4749300;30;19930;-66
2021/03/21 13:05:06;;;;;;;;;;;;;;;10.69;62.57;101995.22;4753786;30;19930;-70
2021/03/21 13:07:33;;;;;;;;;;;;;;;10.65;62.77;101996.88;4750470;30;20398;-67
2021/03/21 13:09:59;;;;;;;;;;;;;;;10.94;61.66;102017.16;4766008;30;20299;-70
2021/03/21 13:12:26;;;;;;;;;;;;;;;11.00;58.92;101993.94;4736305;30;19938;-70
2021/03/21 13:14:53;;;;;;;;;;;;;;;11.14;57.79;101991.41;4746694;30;19933;-70
2021/03/21 13:17:21;;;;;;;;;;;;;;;11.12;55.36;101996.38;4768716;30;19926;-67